createdAt,value
2019-06-10T00:03:21.112Z,97.40
2019-06-10T00:07:26.128Z,97.30
2019-06-10T00:11:31.532Z,97.90
2019-06-10T00:15:36.591Z,97.80
2019-06-10T00:19:41.469Z,97.80
2019-06-10T00:23:46.430Z,97.80
2019-06-10T00:27:51.334Z,98.30
2019-06-10T00:31:56.182Z,98.40
2019-06-10T00:36:05.148Z,98.50
2019-06-10T00:40:09.998Z,98.90
2019-06-10T00:44:14.835Z,99.00
2019-06-10T00:48:26.026Z,99.20
2019-06-10T00:52:26.457Z,99.50
2019-06-10T00:56:32.099Z,99.50
2019-06-10T01:00:37.064Z,99.60
2019-06-10T01:04:41.929Z,99.80
2019-06-10T01:08:46.966Z,99.90
2019-06-10T01:12:51.821Z,99.90
2019-06-10T01:16:56.840Z,99.90
2019-06-10T01:21:02.070Z,99.90
2019-06-10T01:25:07.254Z,99.90
2019-06-10T01:29:14.304Z,99.90
2019-06-10T01:33:21.239Z,99.90
2019-06-10T01:37:25.834Z,99.90
2019-06-10T01:41:30.901Z,99.90
2019-06-10T01:45:35.797Z,99.90
2019-06-10T01:49:41.210Z,99.90
2019-06-10T01:53:46.412Z,99.90
2019-06-10T01:57:51.821Z,99.90
2019-06-10T02:02:12.711Z,99.90
2019-06-10T02:06:20.422Z,99.90
2019-06-10T02:10:23.566Z,99.90
2019-06-10T02:14:31.553Z,99.90
2019-06-10T02:18:34.990Z,99.90
2019-06-10T02:22:41.142Z,99.90
2019-06-10T02:26:46.200Z,99.90
2019-06-10T02:30:55.485Z,99.90
2019-06-10T02:35:14.278Z,99.90
2019-06-10T02:39:05.800Z,99.90
2019-06-10T02:43:17.572Z,99.90
2019-06-10T02:47:22.715Z,99.90
2019-06-10T02:51:30.769Z,99.90
2019-06-10T02:55:35.141Z,99.90
2019-06-10T02:59:38.756Z,99.90
2019-06-10T03:03:49.182Z,99.90
2019-06-10T03:07:53.116Z,99.90
2019-06-10T03:11:57.060Z,99.90
2019-06-10T03:16:08.796Z,99.90
2019-06-10T03:20:14.064Z,99.90
2019-06-10T03:24:19.180Z,99.90
2019-06-10T03:28:25.260Z,99.90
2019-06-10T03:32:40.068Z,99.90
2019-06-10T03:36:36.781Z,99.90
2019-06-10T03:40:43.401Z,99.90
2019-06-10T03:44:48.594Z,99.90
2019-06-10T03:48:53.558Z,99.90
2019-06-10T03:53:01.156Z,99.90
2019-06-10T03:57:05.037Z,99.90
2019-06-10T04:01:12.118Z,99.90
2019-06-10T04:05:17.470Z,99.90
2019-06-10T04:09:24.226Z,99.90
2019-06-10T04:13:29.318Z,99.90
2019-06-10T04:17:34.222Z,99.90
2019-06-10T04:21:39.223Z,99.90
2019-06-10T04:25:44.663Z,99.90
2019-06-10T04:29:49.522Z,99.90
2019-06-10T04:33:54.473Z,99.90
2019-06-10T04:37:59.336Z,99.90
2019-06-10T04:42:04.225Z,99.90
2019-06-10T04:46:09.494Z,99.90
2019-06-10T04:50:24.805Z,99.90
2019-06-10T04:54:23.472Z,99.90
2019-06-10T04:58:29.125Z,99.90
2019-06-10T05:02:34.681Z,99.90
2019-06-10T05:06:41.981Z,99.90
2019-06-10T05:10:46.315Z,99.90
2019-06-10T05:14:52.668Z,99.90
2019-06-10T05:19:00.282Z,99.90
2019-06-10T05:23:05.081Z,99.40
2019-06-10T05:27:12.472Z,99.40
2019-06-10T05:31:16.975Z,99.90
2019-06-10T05:35:24.187Z,99.30
2019-06-10T05:39:29.201Z,98.80
2019-06-10T05:43:34.864Z,98.30
2019-06-10T05:47:42.506Z,96.60
2019-06-10T05:51:46.689Z,96.00
2019-06-10T05:55:52.944Z,93.90
2019-06-10T05:59:58.097Z,94.70
2019-06-10T06:04:03.336Z,94.80
2019-06-10T06:08:09.043Z,94.40
2019-06-10T06:12:14.503Z,92.10
2019-06-10T06:16:19.390Z,90.70
2019-06-10T06:20:25.061Z,87.70
2019-06-10T06:24:32.740Z,88.90
2019-06-10T06:28:38.184Z,85.90
2019-06-10T06:32:43.763Z,84.10
2019-06-10T06:36:48.899Z,82.10
2019-06-10T06:40:54.094Z,80.00
2019-06-10T06:44:59.062Z,80.10
2019-06-10T06:49:04.143Z,80.10
2019-06-10T06:53:21.335Z,81.20
2019-06-10T06:57:16.623Z,79.70
2019-06-10T07:01:25.174Z,79.70
2019-06-10T07:05:28.361Z,78.50
2019-06-10T07:09:36.185Z,75.80
2019-06-10T07:13:45.899Z,73.40
2019-06-10T07:17:52.662Z,73.90
2019-06-10T07:22:09.512Z,75.00
2019-06-10T07:26:04.267Z,73.00
2019-06-10T07:30:12.490Z,73.40
2019-06-10T07:34:27.802Z,73.50
2019-06-10T07:38:55.800Z,72.20
2019-06-10T07:43:24.614Z,73.80
2019-06-10T07:47:35.260Z,68.90
2019-06-10T07:51:46.313Z,69.50
2019-06-10T07:55:54.500Z,68.50
2019-06-10T08:00:03.253Z,67.00
2019-06-10T08:04:08.254Z,67.30
2019-06-10T08:08:14.440Z,65.60
2019-06-10T08:12:19.345Z,64.20
2019-06-10T08:16:27.907Z,62.60
2019-06-10T08:20:48.235Z,62.20
2019-06-10T08:25:36.721Z,64.60
2019-06-10T08:29:47.720Z,61.40
2019-06-10T08:34:35.932Z,64.20
2019-06-10T08:38:58.153Z,63.60
2019-06-10T08:43:44.710Z,59.30
2019-06-10T08:48:03.413Z,56.50
2019-06-10T08:53:07.352Z,54.60
2019-06-10T08:57:50.989Z,48.20
2019-06-10T09:02:08.579Z,45.50
2019-06-10T09:06:53.568Z,43.50
2019-06-10T09:11:54.466Z,41.40
2019-06-10T09:16:27.569Z,43.10
2019-06-10T09:21:53.349Z,38.50
2019-06-10T09:26:49.569Z,40.00
2019-06-10T09:31:39.467Z,38.50
2019-06-10T09:36:08.581Z,36.70
2019-06-10T09:41:36.534Z,33.00
2019-06-10T09:46:08.709Z,35.70
2019-06-10T09:51:32.330Z,34.00
2019-06-10T09:55:48.025Z,36.30
2019-06-10T10:00:06.330Z,36.50
2019-06-10T10:04:57.863Z,34.50
2019-06-10T10:09:44.345Z,35.10
2019-06-10T10:19:12.890Z,37.40
2019-06-10T10:24:06.236Z,38.30
2019-06-10T10:28:42.364Z,35.60
2019-06-10T10:32:49.158Z,33.40
2019-06-10T10:36:56.966Z,37.20
2019-06-10T10:41:04.208Z,34.20
2019-06-10T10:45:08.050Z,35.70
2019-06-10T10:49:14.249Z,35.90
2019-06-10T10:53:19.279Z,33.90
2019-06-10T10:57:25.104Z,32.40
2019-06-10T11:01:30.127Z,32.60
2019-06-10T11:05:36.553Z,31.00
2019-06-10T11:09:42.408Z,30.00
2019-06-10T11:13:49.382Z,30.50
2019-06-10T11:17:56.376Z,29.50
2019-06-10T11:22:02.789Z,28.30
2019-06-10T11:26:17.567Z,29.70
2019-06-10T11:30:23.040Z,32.80
2019-06-10T11:34:28.949Z,30.00
2019-06-10T11:38:38.477Z,28.10
2019-06-10T11:42:43.722Z,29.00
2019-06-10T11:46:49.172Z,28.00
2019-06-10T11:50:58.226Z,29.00
2019-06-10T11:55:11.621Z,31.50
2019-06-10T11:59:09.625Z,30.50
2019-06-10T12:03:15.458Z,30.30
2019-06-10T12:07:23.217Z,29.10
2019-06-10T12:11:28.616Z,27.50
2019-06-10T12:20:29.551Z,30.10
2019-06-10T12:24:35.056Z,31.30
2019-06-10T12:28:42.903Z,30.20
2019-06-10T12:32:47.093Z,29.20
2019-06-10T12:36:56.280Z,30.50
2019-06-10T12:41:07.443Z,31.90
2019-06-10T12:45:08.848Z,33.50
2019-06-10T12:53:44.871Z,26.60
2019-06-10T12:57:53.298Z,26.00
2019-06-10T13:02:11.412Z,26.10
2019-06-10T13:06:29.806Z,26.10
2019-06-10T13:10:42.716Z,25.10
2019-06-10T13:14:46.707Z,26.30
2019-06-10T13:18:52.517Z,23.50
2019-06-10T13:22:58.221Z,24.00
2019-06-10T13:27:05.059Z,24.40
2019-06-10T13:31:10.336Z,25.20
2019-06-10T13:35:16.147Z,23.00
2019-06-10T13:39:22.319Z,25.00
2019-06-10T13:43:27.487Z,25.90
2019-06-10T13:47:33.169Z,26.40
2019-06-10T13:51:38.376Z,27.20
2019-06-10T13:55:43.698Z,25.70
2019-06-10T13:59:51.895Z,24.70
2019-06-10T14:03:56.392Z,24.90
2019-06-10T14:08:06.851Z,26.40
2019-06-10T14:12:17.322Z,28.30
2019-06-10T14:16:23.234Z,30.20
2019-06-10T14:20:27.555Z,26.90
2019-06-10T14:24:35.280Z,25.10
2019-06-10T14:28:41.750Z,24.30
2019-06-10T14:32:46.703Z,24.90
2019-06-10T14:36:52.541Z,24.90
2019-06-10T14:41:03.414Z,27.20
2019-06-10T14:45:08.703Z,28.20
2019-06-10T14:49:15.657Z,28.20
2019-06-10T14:53:22.935Z,28.00
2019-06-10T14:57:33.308Z,27.70
2019-06-10T15:01:37.478Z,28.30
2019-06-10T15:05:43.351Z,27.60
2019-06-10T15:09:48.428Z,28.40
2019-06-10T15:13:53.465Z,27.50
2019-06-10T15:17:58.440Z,29.60
2019-06-10T15:22:03.387Z,28.60
2019-06-10T15:26:08.414Z,28.40
2019-06-10T15:30:22.635Z,28.00
2019-06-10T15:34:20.667Z,26.30
2019-06-10T15:38:25.690Z,26.30
2019-06-10T15:42:33.167Z,28.10
2019-06-10T15:46:37.465Z,29.50
2019-06-10T15:50:42.959Z,29.50
2019-06-10T15:54:47.937Z,30.60
2019-06-10T15:58:53.132Z,31.70
2019-06-10T16:03:02.482Z,32.80
2019-06-10T16:07:08.614Z,34.10
2019-06-10T16:11:20.008Z,34.30
2019-06-10T16:15:26.544Z,34.30
2019-06-10T16:19:32.850Z,35.90
2019-06-10T16:23:37.816Z,38.00
2019-06-10T16:27:48.634Z,41.70
2019-06-10T16:31:49.306Z,41.20
2019-06-10T16:35:58.210Z,43.20
2019-06-10T16:40:03.452Z,45.40
2019-06-10T16:44:08.415Z,46.00
2019-06-10T16:48:13.843Z,45.40
2019-06-10T16:52:19.491Z,48.10
2019-06-10T16:56:26.013Z,45.60
2019-06-10T17:00:34.522Z,46.40
2019-06-10T17:04:37.879Z,47.10
2019-06-10T17:08:42.851Z,49.10
2019-06-10T17:12:59.068Z,48.60
2019-06-10T17:17:04.219Z,49.70
2019-06-10T17:21:09.692Z,51.00
2019-06-10T17:25:15.532Z,50.90
2019-06-10T17:29:22.787Z,50.70
2019-06-10T17:33:28.285Z,51.40
2019-06-10T17:37:33.851Z,54.20
2019-06-10T17:41:39.480Z,55.60
2019-06-10T17:45:44.542Z,53.70
2019-06-10T17:49:49.474Z,55.10
2019-06-10T17:53:54.349Z,58.30
2019-06-10T17:57:59.240Z,59.60
2019-06-10T18:02:04.413Z,60.40
2019-06-10T18:06:09.259Z,60.90
2019-06-10T18:10:14.967Z,60.90
2019-06-10T18:14:20.173Z,61.80
2019-06-10T18:18:26.226Z,63.40
2019-06-10T18:22:33.594Z,64.50
2019-06-10T18:26:38.127Z,64.90
2019-06-10T18:30:43.572Z,65.20
2019-06-10T18:34:48.442Z,66.20
2019-06-10T18:38:53.330Z,68.10
2019-06-10T18:42:58.319Z,70.70
2019-06-10T18:47:03.338Z,71.10
2019-06-10T18:51:08.199Z,71.90
2019-06-10T18:55:14.043Z,72.90
2019-06-10T18:59:21.251Z,74.50
2019-06-10T19:03:25.583Z,74.30
2019-06-10T19:07:31.283Z,76.20
2019-06-10T19:11:38.441Z,76.50
2019-06-10T19:15:43.751Z,76.80
2019-06-10T19:19:48.793Z,77.80
2019-06-10T19:23:53.663Z,78.40
2019-06-10T19:27:58.718Z,77.50
2019-06-10T19:32:04.819Z,78.40
2019-06-10T19:36:12.536Z,78.80
2019-06-10T19:40:17.421Z,78.10
2019-06-10T19:44:23.456Z,78.50
2019-06-10T19:52:52.014Z,78.50
2019-06-10T19:56:57.642Z,79.30
2019-06-10T20:01:03.163Z,79.80
2019-06-10T20:05:09.072Z,80.20
2019-06-10T20:09:14.355Z,80.10
2019-06-10T20:13:19.422Z,81.10
2019-06-10T20:17:24.759Z,80.10
2019-06-10T20:21:32.843Z,79.20
2019-06-10T20:25:38.507Z,78.70
2019-06-10T20:29:45.658Z,78.00
2019-06-10T20:33:53.439Z,77.90
2019-06-10T20:37:58.612Z,78.10
2019-06-10T20:42:03.700Z,78.50
2019-06-10T20:46:08.741Z,78.70
2019-06-10T20:50:14.498Z,79.30
2019-06-10T20:54:19.779Z,80.20
2019-06-10T20:58:25.480Z,80.60
2019-06-10T21:02:32.453Z,81.30
2019-06-10T21:06:39.188Z,83.00
2019-06-10T21:10:46.351Z,83.30
2019-06-10T21:14:52.975Z,83.40
2019-06-10T21:18:57.425Z,84.90
2019-06-10T21:27:32.837Z,85.90
2019-06-10T21:31:37.907Z,86.40
2019-06-10T21:35:45.669Z,87.80
2019-06-10T21:52:44.091Z,90.00
2019-06-10T21:56:48.902Z,89.90
2019-06-10T22:01:08.316Z,90.50
2019-06-10T22:05:03.304Z,91.00
2019-06-10T22:13:48.086Z,91.90
2019-06-10T22:17:54.798Z,92.00
2019-06-10T22:21:59.787Z,92.20
2019-06-10T22:26:07.871Z,92.30
2019-06-10T22:30:14.272Z,92.80
2019-06-10T22:34:19.173Z,93.00
2019-06-10T22:38:24.220Z,93.40
2019-06-10T22:42:29.235Z,93.90
2019-06-10T22:46:34.241Z,94.40
2019-06-10T22:50:39.421Z,94.40
2019-06-10T22:54:44.293Z,94.60
2019-06-10T22:58:49.749Z,95.10
2019-06-10T23:02:56.472Z,95.10
2019-06-10T23:07:03.075Z,95.00
2019-06-10T23:11:08.195Z,95.30
2019-06-10T23:15:13.548Z,96.20
2019-06-10T23:19:18.444Z,96.40
2019-06-10T23:23:23.524Z,96.00
2019-06-10T23:27:28.499Z,96.00
2019-06-10T23:31:48.317Z,96.10
2019-06-10T23:35:42.676Z,96.00
2019-06-10T23:39:46.710Z,96.50
2019-06-10T23:43:52.999Z,96.40
2019-06-10T23:47:59.229Z,96.70
2019-06-10T23:52:05.499Z,96.50
2019-06-10T23:56:12.674Z,96.80
